James L. Oberstar — WDC6154 — position and weather

sailwx.info

Track history (hours):
 
Tides and Currents Weather Stations Pressure Air Temp Water Temp Dewpoint Dewpoint Depression Visibility Wind Speed Wind Dir Waves Ship Positions

James L. Oberstar

Owner: Destin Trading Corporation, harahan, LA. More information available from US FCC via Universal Licensing System and Coast Guard Vessel Documentation Center.

Last reported at 2016-Apr-24 14:17 UTC. Time now 2016-May-01 15:28 UTC.
Position N 29°56' W 092°57'.

Length 26 m.

Type: Towing. MMSI: 367052120.

Date/timePositionNaut miles runAvg speedWind from/ knotsBaromVisibWave heightAir tempDewpointWater temp
2016-Apr-24 14:17N 29°56' W 092°57'3 4.4
2016-Apr-24 13:34N 29°56' W 093°01'4 4.5
2016-Apr-24 12:33N 29°56' W 093°06'4 4.0
2016-Apr-24 11:33N 29°57' W 093°10'4 4.0
2016-Apr-24 10:33N 30°00' W 093°14'2 2.1
2016-Apr-24 09:34N 30°02' W 093°15'2 2.0
2016-Apr-24 08:34N 30°04' W 093°16'2 2.4
2016-Apr-24 07:34N 30°05' W 093°18'2 1.7
2016-Apr-24 06:34N 30°05' W 093°20'4 4.3
2016-Apr-24 05:33N 30°04' W 093°24'6 5.7
2016-Apr-24 04:33N 30°04' W 093°31'6 5.7
2016-Apr-24 03:33N 30°04' W 093°38'5 5.3
2016-Apr-24 02:33N 30°03' W 093°44'5 5.1
2016-Apr-24 01:33N 29°59' W 093°48'12 1.1
2016-Apr-23 14:33N 29°50' W 093°57'0 0.0
2016-Apr-23 13:28N 29°50' W 093°57'0 0.0
2016-Apr-23 12:33N 29°50' W 093°57'0 0.0
2016-Apr-23 11:33N 29°50' W 093°57'0 0.0
2016-Apr-23 10:33N 29°50' W 093°57'0 0.0
2016-Apr-23 09:33N 29°50' W 093°57'0 0.0
2016-Apr-23 08:33N 29°50' W 093°57'0 0.0
2016-Apr-23 07:33N 29°50' W 093°58'0 0.3
2016-Apr-23 06:30N 29°50' W 093°58'0 0.0
2016-Apr-23 05:33N 29°50' W 093°58'5 4.9
2016-Apr-23 04:33N 29°54' W 093°54'5 5.3
2016-Apr-23 03:33N 29°59' W 093°54'1 1.3
2016-Apr-23 02:29N 29°60' W 093°55'0 0.0
2016-Apr-22 15:32N 29°60' W 093°55'0 0.0
2016-Apr-22 14:32N 29°60' W 093°55'0 0.0
2016-Apr-22 13:33N 29°60' W 093°55'0 0.0
2016-Apr-22 12:33N 29°60' W 093°55'0 0.0
2016-Apr-22 11:26N 29°60' W 093°55'0 0.0
2016-Apr-22 10:33N 29°60' W 093°55'0 0.0
2016-Apr-22 09:33N 29°60' W 093°55'0 0.0
2016-Apr-22 08:33N 29°60' W 093°55'0 0.0
2016-Apr-22 07:33N 29°60' W 093°55'0 0.0
2016-Apr-22 06:33N 29°60' W 093°55'0 0.0
2016-Apr-22 05:24N 29°60' W 093°55'0 0.0
2016-Apr-22 04:32N 29°60' W 093°55'0 0.0
2016-Apr-22 03:29N 29°60' W 093°55'0 0.0
2016-Apr-21 20:33N 29°60' W 093°55'0 0.0
2016-Apr-21 19:33N 29°60' W 093°55'0 0.0
2016-Apr-21 13:29N 29°60' W 093°55'0 0.0
2016-Apr-21 00:32N 29°60' W 093°55'0 0.0
2016-Apr-20 21:24N 29°60' W 093°55'2 0.8
2016-Apr-20 18:16N 29°59' W 093°53'0 0.1
2016-Apr-20 13:32N 29°59' W 093°52'3 0.4
2016-Apr-20 07:20N 29°60' W 093°55'0 0.0
2016-Apr-20 06:17N 29°60' W 093°55'2 2.7
2016-Apr-20 05:24N 29°59' W 093°53'  
2016-Apr-17 12:03N 29°58' W 093°51'0 0.0
2016-Apr-17 10:29N 29°58' W 093°51'0 0.0
2016-Apr-17 09:24N 29°58' W 093°51'0 0.0
2016-Apr-15 20:12N 29°58' W 093°51'  
Track history (hours):
 
Tides and Currents Weather Stations Pressure Air Temp Water Temp Dewpoint Dewpoint Depression Visibility Wind Speed Wind Dir Waves Ship Positions

James L. Oberstar

Owner: Destin Trading Corporation, harahan, LA. More information available from US FCC via Universal Licensing System and Coast Guard Vessel Documentation Center.

Last reported at 2016-Apr-24 14:17 UTC. Time now 2016-May-01 15:28 UTC.
Position N 29°56' W 092°57'.

Length 26 m.

Type: Towing. MMSI: 367052120.

Date/timePositionNaut miles runAvg speedWind from/ knotsBaromVisibWave heightAir tempDewpointWater temp
2016-Apr-24 14:17N 29°56' W 092°57'3 4.4
2016-Apr-24 13:34N 29°56' W 093°01'4 4.5
2016-Apr-24 12:33N 29°56' W 093°06'4 4.0
2016-Apr-24 11:33N 29°57' W 093°10'4 4.0
2016-Apr-24 10:33N 30°00' W 093°14'2 2.1
2016-Apr-24 09:34N 30°02' W 093°15'2 2.0
2016-Apr-24 08:34N 30°04' W 093°16'2 2.4
2016-Apr-24 07:34N 30°05' W 093°18'2 1.7
2016-Apr-24 06:34N 30°05' W 093°20'4 4.3
2016-Apr-24 05:33N 30°04' W 093°24'6 5.7
2016-Apr-24 04:33N 30°04' W 093°31'6 5.7
2016-Apr-24 03:33N 30°04' W 093°38'5 5.3
2016-Apr-24 02:33N 30°03' W 093°44'5 5.1
2016-Apr-24 01:33N 29°59' W 093°48'12 1.1
2016-Apr-23 14:33N 29°50' W 093°57'0 0.0
2016-Apr-23 13:28N 29°50' W 093°57'0 0.0
2016-Apr-23 12:33N 29°50' W 093°57'0 0.0
2016-Apr-23 11:33N 29°50' W 093°57'0 0.0
2016-Apr-23 10:33N 29°50' W 093°57'0 0.0
2016-Apr-23 09:33N 29°50' W 093°57'0 0.0
2016-Apr-23 08:33N 29°50' W 093°57'0 0.0
2016-Apr-23 07:33N 29°50' W 093°58'0 0.3
2016-Apr-23 06:30N 29°50' W 093°58'0 0.0
2016-Apr-23 05:33N 29°50' W 093°58'5 4.9
2016-Apr-23 04:33N 29°54' W 093°54'5 5.3
2016-Apr-23 03:33N 29°59' W 093°54'1 1.3
2016-Apr-23 02:29N 29°60' W 093°55'0 0.0
2016-Apr-22 15:32N 29°60' W 093°55'0 0.0
2016-Apr-22 14:32N 29°60' W 093°55'0 0.0
2016-Apr-22 13:33N 29°60' W 093°55'0 0.0
2016-Apr-22 12:33N 29°60' W 093°55'0 0.0
2016-Apr-22 11:26N 29°60' W 093°55'0 0.0
2016-Apr-22 10:33N 29°60' W 093°55'0 0.0
2016-Apr-22 09:33N 29°60' W 093°55'0 0.0
2016-Apr-22 08:33N 29°60' W 093°55'0 0.0
2016-Apr-22 07:33N 29°60' W 093°55'0 0.0
2016-Apr-22 06:33N 29°60' W 093°55'0 0.0
2016-Apr-22 05:24N 29°60' W 093°55'0 0.0
2016-Apr-22 04:32N 29°60' W 093°55'0 0.0
2016-Apr-22 03:29N 29°60' W 093°55'0 0.0
2016-Apr-21 20:33N 29°60' W 093°55'0 0.0
2016-Apr-21 19:33N 29°60' W 093°55'0 0.0
2016-Apr-21 13:29N 29°60' W 093°55'0 0.0
2016-Apr-21 00:32N 29°60' W 093°55'0 0.0
2016-Apr-20 21:24N 29°60' W 093°55'2 0.8
2016-Apr-20 18:16N 29°59' W 093°53'0 0.1
2016-Apr-20 13:32N 29°59' W 093°52'3 0.4
2016-Apr-20 07:20N 29°60' W 093°55'0 0.0
2016-Apr-20 06:17N 29°60' W 093°55'2 2.7
2016-Apr-20 05:24N 29°59' W 093°53'  
2016-Apr-17 12:03N 29°58' W 093°51'0 0.0
2016-Apr-17 10:29N 29°58' W 093°51'0 0.0
2016-Apr-17 09:24N 29°58' W 093°51'0 0.0
2016-Apr-15 20:12N 29°58' W 093°51'  

Dump ship's entire track history